createdAt,value
2022-12-05T00:00:35.173Z,1.32
2022-12-05T00:04:11.297Z,1.32
2022-12-05T00:07:38.322Z,1.31
2022-12-05T00:11:05.077Z,1.31
2022-12-05T00:14:31.933Z,1.31
2022-12-05T00:17:58.888Z,1.28
2022-12-05T00:21:28.000Z,1.25
2022-12-05T00:24:55.013Z,1.22
2022-12-05T00:28:21.800Z,1.21
2022-12-05T00:31:48.627Z,1.20
2022-12-05T00:35:15.742Z,1.19
2022-12-05T00:38:43.969Z,1.19
2022-12-05T00:42:10.593Z,1.17
2022-12-05T00:45:37.688Z,1.17
2022-12-05T00:49:06.609Z,1.16
2022-12-05T00:52:33.337Z,1.15
2022-12-05T00:56:04.763Z,1.15
2022-12-05T00:59:31.498Z,1.15
2022-12-05T01:02:58.470Z,1.16
2022-12-05T01:06:27.369Z,1.16
2022-12-05T01:09:54.975Z,1.16
2022-12-05T01:13:22.052Z,1.16
2022-12-05T01:16:52.725Z,1.16
2022-12-05T01:20:20.792Z,1.15
2022-12-05T01:23:48.066Z,1.13
2022-12-05T01:27:15.160Z,1.12
2022-12-05T01:30:43.876Z,1.11
2022-12-05T01:34:15.405Z,1.11
2022-12-05T01:37:42.499Z,1.10
2022-12-05T01:41:13.063Z,1.09
2022-12-05T01:45:06.150Z,1.08
2022-12-05T01:48:37.233Z,1.08
2022-12-05T02:01:52.311Z,1.13
2022-12-05T02:05:22.393Z,1.13
2022-12-05T02:08:50.519Z,1.12
2022-12-05T02:12:17.233Z,1.11
2022-12-05T02:15:52.398Z,1.10
2022-12-05T02:20:00.997Z,1.10
2022-12-05T02:23:47.776Z,1.10
2022-12-05T02:27:34.880Z,1.11
2022-12-05T02:31:07.548Z,1.11
2022-12-05T02:34:44.202Z,1.11
2022-12-05T02:38:21.247Z,1.08
2022-12-05T02:41:54.988Z,1.07
2022-12-05T02:45:24.786Z,1.05
2022-12-05T02:48:55.753Z,1.03
2022-12-05T02:52:23.820Z,1.03
2022-12-05T02:55:51.494Z,1.05
2022-12-05T02:59:23.032Z,1.05
2022-12-05T03:02:52.330Z,1.03
2022-12-05T03:06:25.283Z,1.00
2022-12-05T03:09:56.707Z,0.99
2022-12-05T03:13:27.685Z,0.97
2022-12-05T03:16:58.535Z,0.97
2022-12-05T03:20:29.646Z,0.95
2022-12-05T03:24:01.718Z,0.94
2022-12-05T03:27:37.676Z,0.92
2022-12-05T03:31:15.141Z,0.91
2022-12-05T03:34:53.122Z,0.91
2022-12-05T03:38:26.475Z,0.90
2022-12-05T03:41:59.723Z,0.90
2022-12-05T03:45:34.141Z,0.90
2022-12-05T03:49:08.304Z,0.90
2022-12-05T03:53:10.958Z,0.91
2022-12-05T03:56:33.001Z,0.91
2022-12-05T04:00:04.375Z,0.91
2022-12-05T04:03:40.413Z,0.91
2022-12-05T04:07:10.085Z,0.91
2022-12-05T04:10:49.641Z,0.91
2022-12-05T04:14:19.964Z,0.90
2022-12-05T04:17:53.683Z,0.89
2022-12-05T04:21:41.834Z,0.88
2022-12-05T04:25:30.235Z,0.87
2022-12-05T04:29:07.572Z,0.86
2022-12-05T04:32:41.645Z,0.85
2022-12-05T04:36:14.948Z,0.82
2022-12-05T04:39:47.024Z,0.79
2022-12-05T04:43:16.267Z,0.76
2022-12-05T04:46:45.914Z,0.74
2022-12-05T04:50:15.365Z,0.73
2022-12-05T04:53:45.321Z,0.72
2022-12-05T04:57:19.196Z,0.72
2022-12-05T05:00:55.831Z,0.71
2022-12-05T05:04:28.397Z,0.71
2022-12-05T05:07:56.907Z,0.70
2022-12-05T05:11:26.796Z,0.72
2022-12-05T05:14:53.705Z,0.71
2022-12-05T05:18:20.517Z,0.72
2022-12-05T05:21:48.698Z,0.72
2022-12-05T05:25:15.707Z,0.73
2022-12-05T05:28:42.838Z,0.71
2022-12-05T05:32:09.684Z,0.71
2022-12-05T05:35:38.546Z,0.72
2022-12-05T05:39:07.662Z,0.72
2022-12-05T05:42:34.489Z,0.72
2022-12-05T05:46:04.435Z,0.73
2022-12-05T05:49:31.913Z,0.74
2022-12-05T05:52:58.819Z,0.73
2022-12-05T05:56:26.056Z,0.73
2022-12-05T05:59:52.961Z,0.74
2022-12-05T06:03:19.761Z,0.75
2022-12-05T06:06:46.790Z,0.75
2022-12-05T06:10:13.833Z,0.76
2022-12-05T06:13:41.030Z,0.76
2022-12-05T06:17:08.354Z,0.75
2022-12-05T06:20:35.036Z,0.75
2022-12-05T06:24:01.703Z,0.73
2022-12-05T06:27:30.232Z,0.73
2022-12-05T06:30:57.960Z,0.71
2022-12-05T06:34:24.672Z,0.69
2022-12-05T06:37:51.376Z,0.70
2022-12-05T06:41:20.354Z,0.69
2022-12-05T06:44:47.322Z,0.69
2022-12-05T06:48:14.010Z,0.69
2022-12-05T06:51:40.806Z,0.69
2022-12-05T06:55:09.116Z,0.69
2022-12-05T06:58:36.228Z,0.69
2022-12-05T07:02:03.046Z,0.70
2022-12-05T07:05:30.149Z,0.70
2022-12-05T07:08:57.070Z,0.70
2022-12-05T07:12:23.699Z,0.71
2022-12-05T07:15:51.757Z,0.73
2022-12-05T07:19:18.820Z,0.75
2022-12-05T07:22:46.887Z,0.76
2022-12-05T07:26:15.212Z,0.77
2022-12-05T07:29:42.218Z,0.78
2022-12-05T07:33:09.238Z,0.79
2022-12-05T07:36:35.901Z,0.80
2022-12-05T07:40:04.727Z,0.82
2022-12-05T07:43:31.818Z,0.82
2022-12-05T07:46:59.141Z,0.83
2022-12-05T07:50:25.969Z,0.84
2022-12-05T07:53:52.878Z,0.85
2022-12-05T07:57:20.261Z,0.87
2022-12-05T08:00:47.976Z,0.87
2022-12-05T08:04:16.712Z,0.89
2022-12-05T08:07:44.549Z,0.93
2022-12-05T08:11:15.647Z,0.98
2022-12-05T08:14:43.606Z,1.03
2022-12-05T08:18:11.302Z,1.08
2022-12-05T08:21:38.512Z,1.12
2022-12-05T08:25:05.681Z,1.16
2022-12-05T08:28:34.054Z,1.20
2022-12-05T08:32:01.694Z,1.22
2022-12-05T08:35:28.892Z,1.24
2022-12-05T08:38:58.756Z,1.24
2022-12-05T08:42:25.508Z,1.25
2022-12-05T08:45:54.312Z,1.26
2022-12-05T08:49:21.806Z,1.27
2022-12-05T08:52:48.738Z,1.28
2022-12-05T08:56:16.309Z,1.31
2022-12-05T08:59:43.024Z,1.31
2022-12-05T09:03:11.268Z,1.33
2022-12-05T09:06:39.432Z,1.33
2022-12-05T09:10:09.391Z,1.33
2022-12-05T09:13:36.846Z,1.33
2022-12-05T09:17:04.409Z,1.35
2022-12-05T09:20:31.667Z,1.35
2022-12-05T09:24:01.014Z,1.37
2022-12-05T09:27:28.934Z,1.40
2022-12-05T09:31:03.362Z,1.43
2022-12-05T09:34:31.175Z,1.45
2022-12-05T09:37:58.300Z,1.46
2022-12-05T09:42:02.402Z,1.47
2022-12-05T09:45:36.199Z,1.49
2022-12-05T09:49:06.498Z,1.53
2022-12-05T09:52:37.078Z,1.53
2022-12-05T09:56:14.138Z,1.56
2022-12-05T09:59:41.209Z,1.59
2022-12-05T10:03:23.403Z,1.62
2022-12-05T10:07:01.213Z,1.64
2022-12-05T10:10:35.358Z,1.67
2022-12-05T10:14:09.528Z,1.69
2022-12-05T10:17:39.773Z,1.70
2022-12-05T10:21:13.374Z,1.72
2022-12-05T10:24:46.027Z,1.74
2022-12-05T10:28:29.749Z,1.73
2022-12-05T10:32:03.554Z,1.72
2022-12-05T10:35:35.803Z,1.71
2022-12-05T10:39:06.941Z,1.70
2022-12-05T10:42:37.550Z,1.69
2022-12-05T10:46:07.506Z,1.70
2022-12-05T10:49:37.855Z,1.71
2022-12-05T10:53:06.524Z,1.73
2022-12-05T10:56:41.845Z,1.74
2022-12-05T11:00:17.916Z,1.75
2022-12-05T11:03:45.946Z,1.77
2022-12-05T11:07:28.480Z,1.77
2022-12-05T11:11:04.606Z,1.77
2022-12-05T11:14:33.470Z,1.76
2022-12-05T11:18:18.020Z,1.77
2022-12-05T11:21:46.257Z,1.78
2022-12-05T11:25:31.157Z,1.78
2022-12-05T11:28:57.954Z,1.80
2022-12-05T11:32:27.677Z,1.81
2022-12-05T11:35:54.017Z,1.82
2022-12-05T11:39:20.864Z,1.82
2022-12-05T11:43:04.685Z,1.85
2022-12-05T11:46:43.737Z,1.89
2022-12-05T11:50:37.664Z,1.91
2022-12-05T11:54:41.733Z,1.92
2022-12-05T11:58:39.581Z,1.94
2022-12-05T12:02:24.644Z,1.95
2022-12-05T12:06:05.992Z,1.97
2022-12-05T12:09:47.222Z,1.98
2022-12-05T12:13:28.576Z,1.96
2022-12-05T12:17:06.361Z,1.97
2022-12-05T12:20:48.369Z,1.97
2022-12-05T12:24:25.266Z,1.96
2022-12-05T12:28:05.553Z,1.97
2022-12-05T12:31:46.893Z,1.97
2022-12-05T12:35:30.119Z,1.97
2022-12-05T12:39:20.580Z,1.97
2022-12-05T12:43:01.684Z,1.95
2022-12-05T12:46:40.923Z,1.94
2022-12-05T12:50:14.987Z,1.93
2022-12-05T12:54:05.068Z,1.92
2022-12-05T12:57:46.691Z,1.91
2022-12-05T13:01:25.716Z,1.91
2022-12-05T13:05:00.431Z,1.90
2022-12-05T13:08:33.852Z,1.90
2022-12-05T13:12:06.047Z,1.91
2022-12-05T13:15:41.921Z,1.93
2022-12-05T13:19:24.619Z,1.94
2022-12-05T13:22:53.295Z,1.94
2022-12-05T13:26:21.556Z,1.92
2022-12-05T13:29:54.988Z,1.92
2022-12-05T13:33:26.351Z,1.93
2022-12-05T13:37:11.006Z,1.93
2022-12-05T13:40:57.752Z,1.95
2022-12-05T13:44:35.743Z,1.94
2022-12-05T13:48:15.332Z,1.94
2022-12-05T13:51:46.827Z,1.94
2022-12-05T13:55:30.767Z,1.96
2022-12-05T13:59:02.826Z,1.98
2022-12-05T14:02:57.681Z,1.97
2022-12-05T14:06:59.937Z,1.98
2022-12-05T14:11:05.972Z,1.97
2022-12-05T14:15:05.872Z,1.96
2022-12-05T14:18:47.923Z,1.96
2022-12-05T14:22:34.347Z,1.99
2022-12-05T14:26:17.050Z,2.01
2022-12-05T14:30:00.726Z,2.04
2022-12-05T14:33:29.176Z,2.06
2022-12-05T14:37:03.216Z,2.08
2022-12-05T14:40:35.585Z,2.09
2022-12-05T14:44:08.534Z,2.09
2022-12-05T14:47:37.968Z,2.09
2022-12-05T14:51:42.905Z,2.08
2022-12-05T14:55:25.097Z,2.09
2022-12-05T14:59:01.089Z,2.09
2022-12-05T15:02:33.905Z,2.08
2022-12-05T15:06:04.210Z,2.08
2022-12-05T15:09:59.456Z,2.09
2022-12-05T15:13:31.925Z,2.09
2022-12-05T15:17:03.964Z,2.10
2022-12-05T15:20:41.676Z,2.12
2022-12-05T15:24:16.928Z,2.14
2022-12-05T15:27:58.211Z,2.15
2022-12-05T15:31:29.326Z,2.17
2022-12-05T15:35:05.131Z,2.18
2022-12-05T15:38:37.747Z,2.18
2022-12-05T15:42:13.053Z,2.18
2022-12-05T15:45:41.759Z,2.18
2022-12-05T15:58:44.277Z,2.27
2022-12-05T16:02:20.641Z,2.26
2022-12-05T16:05:57.876Z,2.26
2022-12-05T16:09:30.053Z,2.27
2022-12-05T16:13:04.146Z,2.28
2022-12-05T16:26:27.083Z,2.34
2022-12-05T16:30:19.599Z,2.31
2022-12-05T16:33:48.724Z,2.32
2022-12-05T16:37:27.778Z,2.31
2022-12-05T16:41:04.440Z,2.33
2022-12-05T16:45:08.096Z,2.33
2022-12-05T16:48:38.591Z,2.33
2022-12-05T16:52:17.543Z,2.33
2022-12-05T16:55:57.685Z,2.31
2022-12-05T16:59:33.862Z,2.30
2022-12-05T17:03:34.140Z,2.30
2022-12-05T17:07:18.578Z,2.32
2022-12-05T17:15:49.858Z,2.36
2022-12-05T17:19:19.368Z,2.39
2022-12-05T17:22:47.221Z,2.40
2022-12-05T17:26:17.582Z,2.41
2022-12-05T17:29:45.934Z,2.42
2022-12-05T17:33:16.202Z,2.43
2022-12-05T17:36:44.204Z,2.46
2022-12-05T17:40:14.256Z,2.48
2022-12-05T17:43:42.878Z,2.50
2022-12-05T17:47:12.348Z,2.51
2022-12-05T17:50:53.261Z,2.52
2022-12-05T17:54:30.680Z,2.53
2022-12-05T17:58:05.594Z,2.55
2022-12-05T18:01:34.132Z,2.55
2022-12-05T18:05:14.522Z,2.57
2022-12-05T18:09:11.705Z,2.60
2022-12-05T18:12:49.722Z,2.62
2022-12-05T18:16:36.862Z,2.64
2022-12-05T18:20:04.905Z,2.65
2022-12-05T18:23:34.458Z,2.66
2022-12-05T18:27:02.388Z,2.67
2022-12-05T18:30:31.111Z,2.69
2022-12-05T18:33:59.407Z,2.70
2022-12-05T18:37:28.665Z,2.72
2022-12-05T18:41:04.124Z,2.74
2022-12-05T18:44:32.850Z,2.75
2022-12-05T18:57:49.916Z,2.86
2022-12-05T19:01:22.179Z,2.86
2022-12-05T19:04:53.594Z,2.88
2022-12-05T19:08:47.264Z,2.89
2022-12-05T19:12:22.919Z,2.90
2022-12-05T19:16:43.412Z,2.92
2022-12-05T19:20:12.872Z,2.92
2022-12-05T19:23:47.291Z,2.91
2022-12-05T19:27:15.628Z,2.89
2022-12-05T19:30:43.581Z,2.88
2022-12-05T19:34:12.096Z,2.88
2022-12-05T19:37:40.169Z,2.87
2022-12-05T19:41:10.635Z,2.89
2022-12-05T19:50:20.591Z,2.91
2022-12-05T19:53:48.979Z,2.94
2022-12-05T19:57:18.214Z,2.94
2022-12-05T20:00:46.418Z,2.95
2022-12-05T20:04:16.497Z,2.96
2022-12-05T20:07:45.110Z,2.98
2022-12-05T20:11:16.478Z,2.99
2022-12-05T20:14:44.385Z,2.99
2022-12-05T20:18:12.142Z,3.01
2022-12-05T20:21:44.254Z,3.03
2022-12-05T20:25:27.839Z,3.05
2022-12-05T20:29:47.284Z,3.06
2022-12-05T20:33:19.882Z,3.06
2022-12-05T20:36:50.970Z,3.07
2022-12-05T20:40:18.111Z,3.09
2022-12-05T20:43:46.121Z,3.09
2022-12-05T20:47:13.379Z,3.10
2022-12-05T20:50:40.292Z,3.08
2022-12-05T20:54:07.685Z,3.07
2022-12-05T20:57:34.793Z,3.06
2022-12-05T21:01:03.288Z,3.06
2022-12-05T21:04:30.211Z,3.05
2022-12-05T21:07:57.225Z,3.05
2022-12-05T21:11:25.599Z,3.04
2022-12-05T21:14:52.734Z,3.03
2022-12-05T21:18:19.659Z,3.04
2022-12-05T21:21:47.108Z,3.05
2022-12-05T21:25:13.784Z,3.05
2022-12-05T21:28:41.070Z,3.05
2022-12-05T21:32:09.780Z,3.06
2022-12-05T21:35:36.765Z,3.06
2022-12-05T21:39:05.470Z,3.07
2022-12-05T21:42:32.580Z,3.07
2022-12-05T21:45:59.409Z,3.08
2022-12-05T21:49:26.718Z,3.11
2022-12-05T21:52:53.847Z,3.11
2022-12-05T21:56:25.273Z,3.12
2022-12-05T21:59:52.698Z,3.12
2022-12-05T22:03:20.865Z,3.12
2022-12-05T22:06:47.995Z,3.15
2022-12-05T22:10:15.221Z,3.16
2022-12-05T22:13:44.195Z,3.18
2022-12-05T22:17:11.283Z,3.20
2022-12-05T22:20:39.117Z,3.22
2022-12-05T22:24:06.154Z,3.23
2022-12-05T22:27:33.526Z,3.25
2022-12-05T22:31:02.640Z,3.26
2022-12-05T22:34:29.598Z,3.27
2022-12-05T22:37:57.863Z,3.28
2022-12-05T22:41:26.755Z,3.29
2022-12-05T22:44:53.535Z,3.30
2022-12-05T22:48:20.997Z,3.31
2022-12-05T22:51:47.855Z,3.32
2022-12-05T22:55:14.857Z,3.31
2022-12-05T22:58:43.081Z,3.32
2022-12-05T23:02:13.361Z,3.33
2022-12-05T23:05:43.461Z,3.34
2022-12-05T23:09:12.100Z,3.36
2022-12-05T23:12:38.782Z,3.37
2022-12-05T23:16:10.983Z,3.39
2022-12-05T23:19:37.798Z,3.40
2022-12-05T23:23:04.905Z,3.42
2022-12-05T23:26:34.120Z,3.43
2022-12-05T23:30:01.296Z,3.44
2022-12-05T23:33:28.915Z,3.46
2022-12-05T23:36:56.467Z,3.46
2022-12-05T23:40:23.401Z,3.47
2022-12-05T23:43:51.583Z,3.48
2022-12-05T23:47:18.848Z,3.47
2022-12-05T23:50:45.728Z,3.48
2022-12-05T23:54:13.847Z,3.47
2022-12-05T23:57:40.731Z,3.48
